sensor_id;sensor_type;location;lat;lon;timestamp;P1;durP1;ratioP1;P2;durP2;ratioP2
4359;SDS011;2193;47.980;7.660;2022-11-15T00:02:03;5.07;;;3.90;;
4359;SDS011;2193;47.980;7.660;2022-11-15T00:04:29;6.53;;;3.70;;
4359;SDS011;2193;47.980;7.660;2022-11-15T00:06:54;4.77;;;3.83;;
4359;SDS011;2193;47.980;7.660;2022-11-15T00:09:20;4.00;;;3.60;;
4359;SDS011;2193;47.980;7.660;2022-11-15T00:11:45;6.17;;;4.07;;
4359;SDS011;2193;47.980;7.660;2022-11-15T00:14:10;6.47;;;3.80;;
4359;SDS011;2193;47.980;7.660;2022-11-15T00:16:35;4.00;;;3.60;;
4359;SDS011;2193;47.980;7.660;2022-11-15T00:19:01;5.50;;;3.70;;
4359;SDS011;2193;47.980;7.660;2022-11-15T00:21:26;6.17;;;3.80;;
4359;SDS011;2193;47.980;7.660;2022-11-15T00:23:52;6.40;;;4.30;;
4359;SDS011;2193;47.980;7.660;2022-11-15T00:26:17;6.63;;;4.00;;
4359;SDS011;2193;47.980;7.660;2022-11-15T00:28:43;6.40;;;4.60;;
4359;SDS011;2193;47.980;7.660;2022-11-15T00:31:09;5.03;;;4.03;;
4359;SDS011;2193;47.980;7.660;2022-11-15T00:33:35;6.53;;;3.93;;
4359;SDS011;2193;47.980;7.660;2022-11-15T00:36:07;4.77;;;3.93;;
4359;SDS011;2193;47.980;7.660;2022-11-15T00:38:34;9.07;;;5.57;;
4359;SDS011;2193;47.980;7.660;2022-11-15T00:41:00;6.73;;;4.67;;
4359;SDS011;2193;47.980;7.660;2022-11-15T00:43:25;9.17;;;4.80;;
4359;SDS011;2193;47.980;7.660;2022-11-15T00:45:51;8.37;;;4.97;;
4359;SDS011;2193;47.980;7.660;2022-11-15T00:48:16;13.50;;;4.90;;
4359;SDS011;2193;47.980;7.660;2022-11-15T00:50:43;5.20;;;4.10;;
4359;SDS011;2193;47.980;7.660;2022-11-15T00:53:08;6.40;;;4.47;;
4359;SDS011;2193;47.980;7.660;2022-11-15T00:55:33;5.13;;;4.20;;
4359;SDS011;2193;47.980;7.660;2022-11-15T00:57:58;9.77;;;4.30;;
4359;SDS011;2193;47.980;7.660;2022-11-15T01:00:25;6.87;;;4.40;;
4359;SDS011;2193;47.980;7.660;2022-11-15T01:02:50;6.03;;;4.03;;
4359;SDS011;2193;47.980;7.660;2022-11-15T01:05:15;6.53;;;4.50;;
4359;SDS011;2193;47.980;7.660;2022-11-15T01:07:41;5.30;;;4.20;;
4359;SDS011;2193;47.980;7.660;2022-11-15T01:10:06;5.67;;;4.00;;
4359;SDS011;2193;47.980;7.660;2022-11-15T01:12:32;6.90;;;4.23;;
4359;SDS011;2193;47.980;7.660;2022-11-15T01:14:57;9.63;;;4.37;;
4359;SDS011;2193;47.980;7.660;2022-11-15T01:17:22;5.77;;;4.20;;
4359;SDS011;2193;47.980;7.660;2022-11-15T01:19:47;6.30;;;4.43;;
4359;SDS011;2193;47.980;7.660;2022-11-15T01:22:13;5.97;;;4.43;;
4359;SDS011;2193;47.980;7.660;2022-11-15T01:24:38;5.90;;;4.33;;
4359;SDS011;2193;47.980;7.660;2022-11-15T01:27:03;5.77;;;4.67;;
4359;SDS011;2193;47.980;7.660;2022-11-15T01:29:29;6.53;;;4.43;;
4359;SDS011;2193;47.980;7.660;2022-11-15T01:31:54;9.70;;;5.17;;
4359;SDS011;2193;47.980;7.660;2022-11-15T01:34:19;6.43;;;4.93;;
4359;SDS011;2193;47.980;7.660;2022-11-15T01:36:44;7.17;;;4.53;;
4359;SDS011;2193;47.980;7.660;2022-11-15T01:39:09;6.47;;;4.37;;
4359;SDS011;2193;47.980;7.660;2022-11-15T01:41:35;6.90;;;4.83;;
4359;SDS011;2193;47.980;7.660;2022-11-15T01:46:47;9.37;;;5.20;;
4359;SDS011;2193;47.980;7.660;2022-11-15T01:49:13;10.50;;;4.13;;
4359;SDS011;2193;47.980;7.660;2022-11-15T01:51:39;5.03;;;4.40;;
4359;SDS011;2193;47.980;7.660;2022-11-15T01:54:06;8.13;;;4.90;;
4359;SDS011;2193;47.980;7.660;2022-11-15T01:56:33;6.03;;;4.47;;
4359;SDS011;2193;47.980;7.660;2022-11-15T01:59:01;10.30;;;5.30;;
4359;SDS011;2193;47.980;7.660;2022-11-15T02:01:28;6.20;;;4.67;;
4359;SDS011;2193;47.980;7.660;2022-11-15T02:03:57;7.90;;;4.47;;
4359;SDS011;2193;47.980;7.660;2022-11-15T02:06:23;9.23;;;4.70;;
4359;SDS011;2193;47.980;7.660;2022-11-15T02:08:49;6.03;;;4.50;;
4359;SDS011;2193;47.980;7.660;2022-11-15T02:11:14;11.40;;;6.30;;
4359;SDS011;2193;47.980;7.660;2022-11-15T02:13:39;6.40;;;4.23;;
4359;SDS011;2193;47.980;7.660;2022-11-15T02:18:34;8.23;;;4.50;;
4359;SDS011;2193;47.980;7.660;2022-11-15T02:28:53;6.03;;;4.80;;
4359;SDS011;2193;47.980;7.660;2022-11-15T02:33:59;11.10;;;5.77;;
4359;SDS011;2193;47.980;7.660;2022-11-15T02:39:03;15.30;;;6.90;;
4359;SDS011;2193;47.980;7.660;2022-11-15T02:44:02;7.70;;;5.93;;
4359;SDS011;2193;47.980;7.660;2022-11-15T02:49:12;8.53;;;5.43;;
4359;SDS011;2193;47.980;7.660;2022-11-15T02:51:39;5.87;;;5.07;;
4359;SDS011;2193;47.980;7.660;2022-11-15T02:54:04;6.80;;;4.33;;
4359;SDS011;2193;47.980;7.660;2022-11-15T02:56:30;7.00;;;4.63;;
4359;SDS011;2193;47.980;7.660;2022-11-15T02:59:13;6.67;;;4.73;;
4359;SDS011;2193;47.980;7.660;2022-11-15T03:09:16;8.40;;;4.53;;
4359;SDS011;2193;47.980;7.660;2022-11-15T03:11:44;14.43;;;5.20;;
4359;SDS011;2193;47.980;7.660;2022-11-15T03:21:59;7.67;;;5.00;;
4359;SDS011;2193;47.980;7.660;2022-11-15T03:24:25;7.73;;;5.30;;
4359;SDS011;2193;47.980;7.660;2022-11-15T03:26:52;7.50;;;5.50;;
4359;SDS011;2193;47.980;7.660;2022-11-15T03:29:20;6.23;;;4.40;;
4359;SDS011;2193;47.980;7.660;2022-11-15T03:31:49;7.80;;;5.47;;
4359;SDS011;2193;47.980;7.660;2022-11-15T03:36:44;12.73;;;5.37;;
4359;SDS011;2193;47.980;7.660;2022-11-15T03:39:10;6.23;;;5.03;;
4359;SDS011;2193;47.980;7.660;2022-11-15T03:41:57;9.00;;;5.27;;
4359;SDS011;2193;47.980;7.660;2022-11-15T03:47:01;9.50;;;4.87;;
4359;SDS011;2193;47.980;7.660;2022-11-15T03:49:28;7.43;;;5.30;;
4359;SDS011;2193;47.980;7.660;2022-11-15T03:51:56;10.87;;;5.00;;
4359;SDS011;2193;47.980;7.660;2022-11-15T03:54:21;6.57;;;5.20;;
4359;SDS011;2193;47.980;7.660;2022-11-15T03:56:47;6.00;;;4.10;;
4359;SDS011;2193;47.980;7.660;2022-11-15T03:59:12;6.67;;;4.13;;
4359;SDS011;2193;47.980;7.660;2022-11-15T04:01:37;6.13;;;4.30;;
4359;SDS011;2193;47.980;7.660;2022-11-15T04:04:02;5.90;;;5.00;;
4359;SDS011;2193;47.980;7.660;2022-11-15T04:06:28;11.40;;;4.83;;
4359;SDS011;2193;47.980;7.660;2022-11-15T04:08:53;7.47;;;4.27;;
4359;SDS011;2193;47.980;7.660;2022-11-15T04:11:18;6.93;;;4.60;;
4359;SDS011;2193;47.980;7.660;2022-11-15T04:13:43;10.53;;;4.50;;
4359;SDS011;2193;47.980;7.660;2022-11-15T04:16:08;8.10;;;4.87;;
4359;SDS011;2193;47.980;7.660;2022-11-15T04:18:34;7.47;;;4.30;;
4359;SDS011;2193;47.980;7.660;2022-11-15T04:20:59;7.07;;;4.23;;
4359;SDS011;2193;47.980;7.660;2022-11-15T04:23:43;7.60;;;4.40;;
4359;SDS011;2193;47.980;7.660;2022-11-15T04:26:27;10.77;;;5.17;;
4359;SDS011;2193;47.980;7.660;2022-11-15T04:28:52;6.20;;;4.50;;
4359;SDS011;2193;47.980;7.660;2022-11-15T04:31:36;5.40;;;4.33;;
4359;SDS011;2193;47.980;7.660;2022-11-15T04:34:01;6.07;;;4.67;;
4359;SDS011;2193;47.980;7.660;2022-11-15T04:36:26;6.07;;;4.20;;
4359;SDS011;2193;47.980;7.660;2022-11-15T04:39:27;6.80;;;3.80;;
4359;SDS011;2193;47.980;7.660;2022-11-15T04:41:53;5.27;;;4.60;;
4359;SDS011;2193;47.980;7.660;2022-11-15T04:44:18;4.17;;;3.77;;
4359;SDS011;2193;47.980;7.660;2022-11-15T04:46:43;4.80;;;3.83;;
4359;SDS011;2193;47.980;7.660;2022-11-15T04:49:09;7.83;;;4.23;;
4359;SDS011;2193;47.980;7.660;2022-11-15T04:51:34;5.50;;;3.90;;
4359;SDS011;2193;47.980;7.660;2022-11-15T04:53:59;8.73;;;4.20;;
4359;SDS011;2193;47.980;7.660;2022-11-15T04:56:24;6.20;;;3.70;;
4359;SDS011;2193;47.980;7.660;2022-11-15T04:58:49;7.93;;;4.53;;
4359;SDS011;2193;47.980;7.660;2022-11-15T05:01:15;5.40;;;3.33;;
4359;SDS011;2193;47.980;7.660;2022-11-15T05:03:40;5.40;;;3.93;;
4359;SDS011;2193;47.980;7.660;2022-11-15T05:06:24;3.57;;;3.13;;
4359;SDS011;2193;47.980;7.660;2022-11-15T05:08:49;5.40;;;4.17;;
4359;SDS011;2193;47.980;7.660;2022-11-15T05:11:14;6.20;;;4.17;;
4359;SDS011;2193;47.980;7.660;2022-11-15T05:13:40;5.40;;;4.40;;
4359;SDS011;2193;47.980;7.660;2022-11-15T05:16:05;5.50;;;3.80;;
4359;SDS011;2193;47.980;7.660;2022-11-15T05:18:30;5.57;;;4.20;;
4359;SDS011;2193;47.980;7.660;2022-11-15T05:20:55;5.40;;;3.87;;
4359;SDS011;2193;47.980;7.660;2022-11-15T05:23:21;7.37;;;4.10;;
4359;SDS011;2193;47.980;7.660;2022-11-15T05:25:46;6.70;;;4.37;;
4359;SDS011;2193;47.980;7.660;2022-11-15T05:28:11;5.37;;;3.90;;
4359;SDS011;2193;47.980;7.660;2022-11-15T05:30:36;8.50;;;3.77;;
4359;SDS011;2193;47.980;7.660;2022-11-15T05:33:01;9.43;;;4.13;;
4359;SDS011;2193;47.980;7.660;2022-11-15T05:35:30;7.10;;;4.93;;
4359;SDS011;2193;47.980;7.660;2022-11-15T05:37:56;6.83;;;4.87;;
4359;SDS011;2193;47.980;7.660;2022-11-15T05:40:21;5.77;;;4.30;;
4359;SDS011;2193;47.980;7.660;2022-11-15T05:42:46;5.60;;;4.40;;
4359;SDS011;2193;47.980;7.660;2022-11-15T05:45:12;6.53;;;4.40;;
4359;SDS011;2193;47.980;7.660;2022-11-15T05:47:37;12.00;;;4.90;;
4359;SDS011;2193;47.980;7.660;2022-11-15T05:50:03;6.93;;;5.00;;
4359;SDS011;2193;47.980;7.660;2022-11-15T05:52:29;7.30;;;5.23;;
4359;SDS011;2193;47.980;7.660;2022-11-15T05:54:56;9.03;;;4.80;;
4359;SDS011;2193;47.980;7.660;2022-11-15T05:57:21;7.37;;;4.80;;
4359;SDS011;2193;47.980;7.660;2022-11-15T05:59:47;8.50;;;4.97;;
4359;SDS011;2193;47.980;7.660;2022-11-15T06:02:12;6.90;;;4.70;;
4359;SDS011;2193;47.980;7.660;2022-11-15T06:04:37;9.43;;;5.40;;
4359;SDS011;2193;47.980;7.660;2022-11-15T06:07:02;5.40;;;4.80;;
4359;SDS011;2193;47.980;7.660;2022-11-15T06:09:28;6.23;;;4.37;;
4359;SDS011;2193;47.980;7.660;2022-11-15T06:11:53;7.40;;;4.57;;
4359;SDS011;2193;47.980;7.660;2022-11-15T06:14:18;5.87;;;4.73;;
4359;SDS011;2193;47.980;7.660;2022-11-15T06:16:43;5.13;;;3.87;;
4359;SDS011;2193;47.980;7.660;2022-11-15T06:19:09;6.30;;;4.73;;
4359;SDS011;2193;47.980;7.660;2022-11-15T06:21:34;9.30;;;5.33;;
4359;SDS011;2193;47.980;7.660;2022-11-15T06:23:59;5.73;;;4.57;;
4359;SDS011;2193;47.980;7.660;2022-11-15T06:26:24;5.37;;;4.67;;
4359;SDS011;2193;47.980;7.660;2022-11-15T06:28:49;7.33;;;5.00;;
4359;SDS011;2193;47.980;7.660;2022-11-15T06:31:15;5.53;;;4.73;;
4359;SDS011;2193;47.980;7.660;2022-11-15T06:33:40;6.10;;;4.67;;
4359;SDS011;2193;47.980;7.660;2022-11-15T06:36:07;5.30;;;4.53;;
4359;SDS011;2193;47.980;7.660;2022-11-15T06:38:32;8.30;;;5.00;;
4359;SDS011;2193;47.980;7.660;2022-11-15T06:41:01;12.07;;;5.80;;
4359;SDS011;2193;47.980;7.660;2022-11-15T06:43:26;8.90;;;4.70;;
4359;SDS011;2193;47.980;7.660;2022-11-15T06:45:52;8.50;;;5.13;;
4359;SDS011;2193;47.980;7.660;2022-11-15T06:48:17;9.07;;;5.50;;
4359;SDS011;2193;47.980;7.660;2022-11-15T06:50:42;9.20;;;5.77;;
4359;SDS011;2193;47.980;7.660;2022-11-15T06:53:07;10.13;;;4.87;;
4359;SDS011;2193;47.980;7.660;2022-11-15T06:55:32;11.27;;;5.63;;
4359;SDS011;2193;47.980;7.660;2022-11-15T06:57:58;8.10;;;5.90;;
4359;SDS011;2193;47.980;7.660;2022-11-15T07:00:23;15.47;;;7.90;;
4359;SDS011;2193;47.980;7.660;2022-11-15T07:02:48;11.20;;;7.20;;
4359;SDS011;2193;47.980;7.660;2022-11-15T07:05:14;12.43;;;7.23;;
4359;SDS011;2193;47.980;7.660;2022-11-15T07:07:39;12.83;;;7.03;;
4359;SDS011;2193;47.980;7.660;2022-11-15T07:10:04;11.17;;;6.67;;
4359;SDS011;2193;47.980;7.660;2022-11-15T07:12:30;8.40;;;5.27;;
4359;SDS011;2193;47.980;7.660;2022-11-15T07:14:55;7.47;;;5.90;;
4359;SDS011;2193;47.980;7.660;2022-11-15T07:17:20;14.97;;;6.37;;
4359;SDS011;2193;47.980;7.660;2022-11-15T07:19:45;9.57;;;5.63;;
4359;SDS011;2193;47.980;7.660;2022-11-15T07:22:10;8.77;;;5.40;;
4359;SDS011;2193;47.980;7.660;2022-11-15T07:24:36;9.13;;;5.40;;
4359;SDS011;2193;47.980;7.660;2022-11-15T07:27:01;7.67;;;5.10;;
4359;SDS011;2193;47.980;7.660;2022-11-15T07:29:26;7.00;;;4.53;;
4359;SDS011;2193;47.980;7.660;2022-11-15T07:31:51;9.33;;;5.27;;
4359;SDS011;2193;47.980;7.660;2022-11-15T07:34:16;10.70;;;5.63;;
4359;SDS011;2193;47.980;7.660;2022-11-15T07:36:42;9.80;;;4.40;;
4359;SDS011;2193;47.980;7.660;2022-11-15T07:39:07;9.30;;;6.10;;
4359;SDS011;2193;47.980;7.660;2022-11-15T07:41:32;10.60;;;5.60;;
4359;SDS011;2193;47.980;7.660;2022-11-15T07:43:57;8.60;;;5.67;;
4359;SDS011;2193;47.980;7.660;2022-11-15T07:46:23;12.27;;;7.30;;
4359;SDS011;2193;47.980;7.660;2022-11-15T07:48:48;10.30;;;6.40;;
4359;SDS011;2193;47.980;7.660;2022-11-15T07:51:13;7.57;;;6.20;;
4359;SDS011;2193;47.980;7.660;2022-11-15T07:53:39;8.10;;;5.20;;
4359;SDS011;2193;47.980;7.660;2022-11-15T07:56:07;11.07;;;6.03;;
4359;SDS011;2193;47.980;7.660;2022-11-15T07:58:32;6.97;;;5.20;;
4359;SDS011;2193;47.980;7.660;2022-11-15T08:00:58;7.10;;;5.30;;
4359;SDS011;2193;47.980;7.660;2022-11-15T08:03:23;8.33;;;5.50;;
4359;SDS011;2193;47.980;7.660;2022-11-15T08:05:51;8.67;;;5.00;;
4359;SDS011;2193;47.980;7.660;2022-11-15T08:08:17;6.87;;;4.93;;
4359;SDS011;2193;47.980;7.660;2022-11-15T08:10:42;7.33;;;4.63;;
4359;SDS011;2193;47.980;7.660;2022-11-15T08:13:08;6.60;;;4.30;;
4359;SDS011;2193;47.980;7.660;2022-11-15T08:15:34;6.73;;;4.73;;
4359;SDS011;2193;47.980;7.660;2022-11-15T08:18:01;4.80;;;4.30;;
4359;SDS011;2193;47.980;7.660;2022-11-15T08:20:27;6.23;;;4.00;;
4359;SDS011;2193;47.980;7.660;2022-11-15T08:22:59;5.27;;;4.67;;
4359;SDS011;2193;47.980;7.660;2022-11-15T08:25:25;6.03;;;4.90;;
4359;SDS011;2193;47.980;7.660;2022-11-15T08:27:54;6.30;;;4.60;;
4359;SDS011;2193;47.980;7.660;2022-11-15T08:30:19;8.50;;;5.10;;
4359;SDS011;2193;47.980;7.660;2022-11-15T08:32:45;6.60;;;5.80;;
4359;SDS011;2193;47.980;7.660;2022-11-15T08:35:10;12.47;;;5.00;;
4359;SDS011;2193;47.980;7.660;2022-11-15T08:37:35;6.80;;;4.83;;
4359;SDS011;2193;47.980;7.660;2022-11-15T08:40:00;8.27;;;5.60;;
4359;SDS011;2193;47.980;7.660;2022-11-15T08:42:26;11.97;;;4.90;;
4359;SDS011;2193;47.980;7.660;2022-11-15T08:44:51;7.80;;;4.60;;
4359;SDS011;2193;47.980;7.660;2022-11-15T08:47:16;7.60;;;4.83;;
4359;SDS011;2193;47.980;7.660;2022-11-15T08:49:41;5.57;;;4.80;;
4359;SDS011;2193;47.980;7.660;2022-11-15T08:52:07;8.20;;;5.27;;
4359;SDS011;2193;47.980;7.660;2022-11-15T08:54:32;8.57;;;5.10;;
4359;SDS011;2193;47.980;7.660;2022-11-15T08:56:57;5.50;;;4.57;;
4359;SDS011;2193;47.980;7.660;2022-11-15T08:59:22;8.70;;;5.23;;
4359;SDS011;2193;47.980;7.660;2022-11-15T09:01:48;8.00;;;4.93;;
4359;SDS011;2193;47.980;7.660;2022-11-15T09:04:13;11.07;;;5.33;;
4359;SDS011;2193;47.980;7.660;2022-11-15T09:06:38;8.93;;;4.90;;
4359;SDS011;2193;47.980;7.660;2022-11-15T09:09:03;5.50;;;4.90;;
4359;SDS011;2193;47.980;7.660;2022-11-15T09:11:28;7.50;;;6.20;;
4359;SDS011;2193;47.980;7.660;2022-11-15T09:13:54;8.63;;;6.17;;
4359;SDS011;2193;47.980;7.660;2022-11-15T09:16:19;7.50;;;5.63;;
4359;SDS011;2193;47.980;7.660;2022-11-15T09:18:44;9.07;;;5.97;;
4359;SDS011;2193;47.980;7.660;2022-11-15T09:21:09;8.03;;;5.80;;
4359;SDS011;2193;47.980;7.660;2022-11-15T09:23:35;10.77;;;6.03;;
4359;SDS011;2193;47.980;7.660;2022-11-15T09:26:01;11.13;;;7.40;;
4359;SDS011;2193;47.980;7.660;2022-11-15T09:28:27;13.13;;;7.10;;
4359;SDS011;2193;47.980;7.660;2022-11-15T09:30:57;12.07;;;7.70;;
4359;SDS011;2193;47.980;7.660;2022-11-15T09:33:23;17.50;;;10.77;;
4359;SDS011;2193;47.980;7.660;2022-11-15T09:35:48;10.60;;;7.40;;
4359;SDS011;2193;47.980;7.660;2022-11-15T09:38:13;12.00;;;5.83;;
4359;SDS011;2193;47.980;7.660;2022-11-15T09:40:39;15.03;;;5.40;;
4359;SDS011;2193;47.980;7.660;2022-11-15T09:46:01;17.90;;;5.27;;
4359;SDS011;2193;47.980;7.660;2022-11-15T09:51:04;8.17;;;4.63;;
4359;SDS011;2193;47.980;7.660;2022-11-15T09:53:32;8.30;;;4.83;;
4359;SDS011;2193;47.980;7.660;2022-11-15T09:56:05;5.43;;;4.20;;
4359;SDS011;2193;47.980;7.660;2022-11-15T10:00:55;5.53;;;4.63;;
4359;SDS011;2193;47.980;7.660;2022-11-15T10:03:25;4.73;;;4.20;;
4359;SDS011;2193;47.980;7.660;2022-11-15T10:05:52;9.50;;;5.13;;
4359;SDS011;2193;47.980;7.660;2022-11-15T10:10:57;8.80;;;4.93;;
4359;SDS011;2193;47.980;7.660;2022-11-15T10:13:23;9.10;;;6.30;;
4359;SDS011;2193;47.980;7.660;2022-11-15T10:15:49;8.53;;;6.23;;
4359;SDS011;2193;47.980;7.660;2022-11-15T10:20:51;7.67;;;5.70;;
4359;SDS011;2193;47.980;7.660;2022-11-15T10:23:20;12.97;;;5.30;;
4359;SDS011;2193;47.980;7.660;2022-11-15T10:25:46;8.27;;;5.23;;
4359;SDS011;2193;47.980;7.660;2022-11-15T10:28:13;6.23;;;4.93;;
4359;SDS011;2193;47.980;7.660;2022-11-15T10:30:40;8.17;;;5.17;;
4359;SDS011;2193;47.980;7.660;2022-11-15T10:36:13;10.73;;;5.53;;
4359;SDS011;2193;47.980;7.660;2022-11-15T10:38:56;8.70;;;5.03;;
4359;SDS011;2193;47.980;7.660;2022-11-15T10:41:22;5.90;;;4.53;;
4359;SDS011;2193;47.980;7.660;2022-11-15T10:44:01;9.40;;;4.20;;
4359;SDS011;2193;47.980;7.660;2022-11-15T10:46:27;7.00;;;4.40;;
4359;SDS011;2193;47.980;7.660;2022-11-15T10:48:52;5.13;;;4.40;;
4359;SDS011;2193;47.980;7.660;2022-11-15T10:51:22;6.30;;;4.70;;
4359;SDS011;2193;47.980;7.660;2022-11-15T10:53:50;8.70;;;4.80;;
4359;SDS011;2193;47.980;7.660;2022-11-15T10:56:16;8.10;;;5.40;;
4359;SDS011;2193;47.980;7.660;2022-11-15T10:58:50;7.10;;;5.27;;
4359;SDS011;2193;47.980;7.660;2022-11-15T11:01:16;9.43;;;5.70;;
4359;SDS011;2193;47.980;7.660;2022-11-15T11:03:43;6.20;;;5.20;;
4359;SDS011;2193;47.980;7.660;2022-11-15T11:08:34;5.97;;;5.13;;
4359;SDS011;2193;47.980;7.660;2022-11-15T11:11:00;8.13;;;5.77;;
4359;SDS011;2193;47.980;7.660;2022-11-15T11:13:27;6.83;;;4.83;;
4359;SDS011;2193;47.980;7.660;2022-11-15T11:16:26;12.23;;;5.57;;
4359;SDS011;2193;47.980;7.660;2022-11-15T11:21:10;9.80;;;5.30;;
4359;SDS011;2193;47.980;7.660;2022-11-15T11:23:45;13.47;;;5.40;;
4359;SDS011;2193;47.980;7.660;2022-11-15T11:33:56;7.07;;;4.40;;
4359;SDS011;2193;47.980;7.660;2022-11-15T11:39:00;5.50;;;3.90;;
4359;SDS011;2193;47.980;7.660;2022-11-15T11:41:38;10.33;;;4.30;;
4359;SDS011;2193;47.980;7.660;2022-11-15T11:51:39;12.97;;;4.43;;
4359;SDS011;2193;47.980;7.660;2022-11-15T11:56:34;8.93;;;4.70;;
4359;SDS011;2193;47.980;7.660;2022-11-15T11:59:15;7.70;;;4.00;;
4359;SDS011;2193;47.980;7.660;2022-11-15T12:01:43;5.93;;;3.77;;
4359;SDS011;2193;47.980;7.660;2022-11-15T12:04:16;6.53;;;3.73;;
4359;SDS011;2193;47.980;7.660;2022-11-15T12:06:53;6.60;;;3.80;;
4359;SDS011;2193;47.980;7.660;2022-11-15T12:11:54;8.73;;;4.00;;
4359;SDS011;2193;47.980;7.660;2022-11-15T12:14:26;8.50;;;4.03;;
4359;SDS011;2193;47.980;7.660;2022-11-15T12:16:52;8.17;;;3.90;;
4359;SDS011;2193;47.980;7.660;2022-11-15T12:19:17;4.77;;;4.30;;
4359;SDS011;2193;47.980;7.660;2022-11-15T12:24:18;9.83;;;4.40;;
4359;SDS011;2193;47.980;7.660;2022-11-15T12:27:18;7.50;;;4.10;;
4359;SDS011;2193;47.980;7.660;2022-11-15T12:29:37;7.07;;;3.90;;
4359;SDS011;2193;47.980;7.660;2022-11-15T12:32:03;7.17;;;4.40;;
4359;SDS011;2193;47.980;7.660;2022-11-15T12:34:37;6.97;;;3.83;;
4359;SDS011;2193;47.980;7.660;2022-11-15T12:37:32;11.00;;;5.93;;
4359;SDS011;2193;47.980;7.660;2022-11-15T12:40:03;5.40;;;4.10;;
4359;SDS011;2193;47.980;7.660;2022-11-15T12:45:50;10.30;;;5.80;;
4359;SDS011;2193;47.980;7.660;2022-11-15T12:59:38;13.70;;;4.77;;
4359;SDS011;2193;47.980;7.660;2022-11-15T13:06:42;14.20;;;7.10;;
4359;SDS011;2193;47.980;7.660;2022-11-15T13:11:51;10.30;;;6.37;;
4359;SDS011;2193;47.980;7.660;2022-11-15T13:17:00;14.33;;;9.27;;
4359;SDS011;2193;47.980;7.660;2022-11-15T13:19:26;9.90;;;5.50;;
4359;SDS011;2193;47.980;7.660;2022-11-15T13:21:51;7.33;;;4.90;;
4359;SDS011;2193;47.980;7.660;2022-11-15T13:24:37;6.10;;;5.40;;
4359;SDS011;2193;47.980;7.660;2022-11-15T13:27:09;8.77;;;4.70;;
4359;SDS011;2193;47.980;7.660;2022-11-15T13:29:35;6.30;;;5.07;;
4359;SDS011;2193;47.980;7.660;2022-11-15T13:32:00;6.40;;;4.20;;
4359;SDS011;2193;47.980;7.660;2022-11-15T13:34:27;6.00;;;4.23;;
4359;SDS011;2193;47.980;7.660;2022-11-15T13:36:53;12.73;;;4.40;;
4359;SDS011;2193;47.980;7.660;2022-11-15T13:39:28;7.60;;;4.60;;
4359;SDS011;2193;47.980;7.660;2022-11-15T13:41:54;9.60;;;5.07;;
4359;SDS011;2193;47.980;7.660;2022-11-15T13:44:21;12.10;;;5.00;;
4359;SDS011;2193;47.980;7.660;2022-11-15T13:46:46;13.47;;;5.23;;
4359;SDS011;2193;47.980;7.660;2022-11-15T13:49:11;6.33;;;4.53;;
4359;SDS011;2193;47.980;7.660;2022-11-15T13:51:47;7.27;;;4.20;;
4359;SDS011;2193;47.980;7.660;2022-11-15T13:56:38;13.17;;;4.70;;
4359;SDS011;2193;47.980;7.660;2022-11-15T13:59:48;27.67;;;5.60;;
4359;SDS011;2193;47.980;7.660;2022-11-15T14:01:54;8.13;;;4.57;;
4359;SDS011;2193;47.980;7.660;2022-11-15T14:04:22;14.67;;;5.93;;
4359;SDS011;2193;47.980;7.660;2022-11-15T14:06:55;17.17;;;4.97;;
4359;SDS011;2193;47.980;7.660;2022-11-15T14:11:56;17.50;;;5.83;;
4359;SDS011;2193;47.980;7.660;2022-11-15T14:14:22;15.20;;;5.80;;
4359;SDS011;2193;47.980;7.660;2022-11-15T14:16:49;22.00;;;6.00;;
4359;SDS011;2193;47.980;7.660;2022-11-15T14:24:47;12.73;;;5.90;;
4359;SDS011;2193;47.980;7.660;2022-11-15T14:27:30;14.83;;;6.60;;
4359;SDS011;2193;47.980;7.660;2022-11-15T14:29:55;18.70;;;7.00;;
4359;SDS011;2193;47.980;7.660;2022-11-15T14:32:21;9.20;;;6.07;;
4359;SDS011;2193;47.980;7.660;2022-11-15T14:34:54;7.10;;;4.87;;
4359;SDS011;2193;47.980;7.660;2022-11-15T14:37:26;8.87;;;4.90;;
4359;SDS011;2193;47.980;7.660;2022-11-15T14:39:52;9.70;;;5.50;;
4359;SDS011;2193;47.980;7.660;2022-11-15T14:42:18;7.43;;;5.17;;
4359;SDS011;2193;47.980;7.660;2022-11-15T14:44:43;13.13;;;5.80;;
4359;SDS011;2193;47.980;7.660;2022-11-15T14:47:08;8.40;;;5.70;;
4359;SDS011;2193;47.980;7.660;2022-11-15T14:49:33;9.80;;;5.43;;
4359;SDS011;2193;47.980;7.660;2022-11-15T14:51:58;13.40;;;6.30;;
4359;SDS011;2193;47.980;7.660;2022-11-15T14:54:24;10.77;;;5.53;;
4359;SDS011;2193;47.980;7.660;2022-11-15T14:56:49;9.20;;;6.27;;
4359;SDS011;2193;47.980;7.660;2022-11-15T14:59:14;8.20;;;6.07;;
4359;SDS011;2193;47.980;7.660;2022-11-15T15:01:39;11.93;;;6.07;;
4359;SDS011;2193;47.980;7.660;2022-11-15T15:04:04;9.17;;;5.90;;
4359;SDS011;2193;47.980;7.660;2022-11-15T15:06:30;10.60;;;6.33;;
4359;SDS011;2193;47.980;7.660;2022-11-15T15:08:55;8.00;;;5.50;;
4359;SDS011;2193;47.980;7.660;2022-11-15T15:11:21;8.33;;;6.47;;
4359;SDS011;2193;47.980;7.660;2022-11-15T15:13:47;10.37;;;5.80;;
4359;SDS011;2193;47.980;7.660;2022-11-15T15:16:12;13.40;;;7.07;;
4359;SDS011;2193;47.980;7.660;2022-11-15T15:18:38;10.57;;;6.77;;
4359;SDS011;2193;47.980;7.660;2022-11-15T15:21:20;14.53;;;6.30;;
4359;SDS011;2193;47.980;7.660;2022-11-15T15:23:46;9.23;;;6.73;;
4359;SDS011;2193;47.980;7.660;2022-11-15T15:26:11;15.50;;;6.90;;
4359;SDS011;2193;47.980;7.660;2022-11-15T15:28:36;16.73;;;7.70;;
4359;SDS011;2193;47.980;7.660;2022-11-15T15:31:03;9.27;;;6.10;;
4359;SDS011;2193;47.980;7.660;2022-11-15T15:33:28;13.67;;;6.20;;
4359;SDS011;2193;47.980;7.660;2022-11-15T15:35:53;15.90;;;7.57;;
4359;SDS011;2193;47.980;7.660;2022-11-15T15:38:19;11.70;;;6.60;;
4359;SDS011;2193;47.980;7.660;2022-11-15T15:40:44;11.07;;;6.50;;
4359;SDS011;2193;47.980;7.660;2022-11-15T15:43:09;19.60;;;11.87;;
4359;SDS011;2193;47.980;7.660;2022-11-15T15:45:36;16.73;;;9.40;;
4359;SDS011;2193;47.980;7.660;2022-11-15T15:48:01;12.40;;;7.17;;
4359;SDS011;2193;47.980;7.660;2022-11-15T15:50:27;10.27;;;6.77;;
4359;SDS011;2193;47.980;7.660;2022-11-15T15:52:54;13.77;;;7.30;;
4359;SDS011;2193;47.980;7.660;2022-11-15T15:55:20;11.80;;;6.70;;
4359;SDS011;2193;47.980;7.660;2022-11-15T15:57:45;10.33;;;6.70;;
4359;SDS011;2193;47.980;7.660;2022-11-15T16:00:11;11.40;;;6.90;;
4359;SDS011;2193;47.980;7.660;2022-11-15T16:02:36;13.53;;;6.30;;
4359;SDS011;2193;47.980;7.660;2022-11-15T16:05:01;13.30;;;6.53;;
4359;SDS011;2193;47.980;7.660;2022-11-15T16:07:27;10.03;;;6.63;;
4359;SDS011;2193;47.980;7.660;2022-11-15T16:09:54;17.60;;;7.67;;
4359;SDS011;2193;47.980;7.660;2022-11-15T16:12:26;15.73;;;6.97;;
4359;SDS011;2193;47.980;7.660;2022-11-15T16:14:51;11.77;;;6.73;;
4359;SDS011;2193;47.980;7.660;2022-11-15T16:17:17;17.67;;;6.63;;
4359;SDS011;2193;47.980;7.660;2022-11-15T16:19:43;13.33;;;7.57;;
4359;SDS011;2193;47.980;7.660;2022-11-15T16:22:08;17.40;;;6.67;;
4359;SDS011;2193;47.980;7.660;2022-11-15T16:24:33;27.03;;;6.80;;
4359;SDS011;2193;47.980;7.660;2022-11-15T16:26:58;11.67;;;7.20;;
4359;SDS011;2193;47.980;7.660;2022-11-15T16:29:24;13.67;;;6.87;;
4359;SDS011;2193;47.980;7.660;2022-11-15T16:31:49;9.60;;;6.80;;
4359;SDS011;2193;47.980;7.660;2022-11-15T16:34:14;9.77;;;6.90;;
4359;SDS011;2193;47.980;7.660;2022-11-15T16:36:40;10.43;;;6.57;;
4359;SDS011;2193;47.980;7.660;2022-11-15T16:39:05;8.83;;;6.70;;
4359;SDS011;2193;47.980;7.660;2022-11-15T16:41:30;11.20;;;7.30;;
4359;SDS011;2193;47.980;7.660;2022-11-15T16:43:55;13.33;;;8.50;;
4359;SDS011;2193;47.980;7.660;2022-11-15T16:48:46;12.90;;;6.70;;
4359;SDS011;2193;47.980;7.660;2022-11-15T16:51:11;12.23;;;7.47;;
4359;SDS011;2193;47.980;7.660;2022-11-15T16:53:37;9.37;;;6.90;;
4359;SDS011;2193;47.980;7.660;2022-11-15T16:56:02;9.47;;;6.40;;
4359;SDS011;2193;47.980;7.660;2022-11-15T16:58:28;10.57;;;7.07;;
4359;SDS011;2193;47.980;7.660;2022-11-15T17:00:54;11.60;;;7.73;;
4359;SDS011;2193;47.980;7.660;2022-11-15T17:03:21;11.10;;;8.50;;
4359;SDS011;2193;47.980;7.660;2022-11-15T17:05:46;14.00;;;10.00;;
4359;SDS011;2193;47.980;7.660;2022-11-15T17:08:11;12.87;;;9.90;;
4359;SDS011;2193;47.980;7.660;2022-11-15T17:10:38;15.43;;;10.90;;
4359;SDS011;2193;47.980;7.660;2022-11-15T17:13:03;17.33;;;10.63;;
4359;SDS011;2193;47.980;7.660;2022-11-15T17:15:28;15.40;;;9.40;;
4359;SDS011;2193;47.980;7.660;2022-11-15T17:17:53;12.10;;;9.07;;